This is the latest recevied weather packets stored in our database for station/object OE2ATN. If no packets are shown the sender has not sent any weather packets the latest 10 day(s).
| Time | Temp. | Humidity | Pressure | Rain* | Wind** | Luminosity | Snow |
|---|---|---|---|---|---|---|---|
| 1777754674 | 11.11° C | 63% | 1026.8 hPa | 0 mm | - | - | - |
| 1777754375 | 11.11° C | 63% | 1026.9 hPa | 0 mm | - | - | - |
| 1777754074 | 11.11° C | 63% | 1026.9 hPa | 0 mm | - | - | - |
| 1777753774 | 11.67° C | 61% | 1026.8 hPa | 0 mm | - | - | - |
| 1777753474 | 11.67° C | 61% | 1026.7 hPa | 0 mm | - | - | - |
| 1777753174 | 11.67° C | 60% | 1026.8 hPa | 0 mm | - | - | - |
| 1777752875 | 12.22° C | 59% | 1026.7 hPa | 0 mm | - | - | - |
| 1777752576 | 12.22° C | 58% | 1026.7 hPa | 0 mm | - | - | - |
| 1777752275 | 12.78° C | 57% | 1026.7 hPa | 0 mm | - | - | - |
| 1777751975 | 12.78° C | 57% | 1026.7 hPa | 0 mm | - | - | - |
| 1777751675 | 12.78° C | 57% | 1026.7 hPa | 0 mm | - | - | - |
| 1777751374 | 13.33° C | 54% | 1026.6 hPa | 0 mm | - | - | - |
| 1777751074 | 13.33° C | 55% | 1026.6 hPa | 0 mm | - | - | - |
| 1777750775 | 12.78° C | 57% | 1026.5 hPa | 0 mm | - | - | - |
| 1777750474 | 12.78° C | 56% | 1026.3 hPa | 0 mm | - | - | - |
| 1777750174 | 13.33° C | 55% | 1026.3 hPa | 0 mm | - | - | - |
| 1777749875 | 13.89° C | 53% | 1026.3 hPa | 0 mm | - | - | - |
| 1777749575 | 14.44° C | 52% | 1026.1 hPa | 0 mm | - | - | - |
| 1777749274 | 14.44° C | 49% | 1026.1 hPa | 0 mm | - | - | - |
| 1777748974 | 14.44° C | 50% | 1026.1 hPa | 0 mm | - | - | - |
| 1777748675 | 14.44° C | 51% | 1026.1 hPa | 0 mm | - | - | - |
| 1777748375 | 13.89° C | 52% | 1026 hPa | 0 mm | - | - | - |
| 1777748077 | 14.44° C | 51% | 1025.9 hPa | 0 mm | - | - | - |
| 1777747774 | 14.44° C | 52% | 1025.8 hPa | 0 mm | - | - | - |
| 1777747475 | 14.44° C | 51% | 1025.7 hPa | 0 mm | - | - | - |
* Rain latest hour (hover to see other rain measurements)
** Current wind speed in m/s (hover to see current wind gust speed)